createdAt,value
2022-10-21T00:01:00.391Z,5.30
2022-10-21T00:03:28.633Z,3.22
2022-10-21T00:05:56.738Z,2.33
2022-10-21T00:08:25.160Z,3.90
2022-10-21T00:10:58.951Z,2.88
2022-10-21T00:13:28.720Z,3.05
2022-10-21T00:16:01.759Z,4.22
2022-10-21T00:18:30.748Z,5.00
2022-10-21T00:20:59.007Z,2.97
2022-10-21T00:23:26.896Z,2.60
2022-10-21T00:26:01.851Z,4.15
2022-10-21T00:30:58.549Z,2.95
2022-10-21T00:33:27.226Z,4.18
2022-10-21T00:35:57.805Z,3.38
2022-10-21T00:38:25.916Z,3.15
2022-10-21T00:40:53.642Z,3.80
2022-10-21T00:43:21.869Z,2.33
2022-10-21T00:45:52.937Z,4.55
2022-10-21T00:48:33.361Z,3.15
2022-10-21T00:51:12.154Z,3.35
2022-10-21T00:53:43.028Z,3.13
2022-10-21T00:56:16.574Z,3.00
2022-10-21T00:58:46.073Z,3.58
2022-10-21T01:01:17.844Z,2.55
2022-10-21T01:06:17.180Z,2.85
2022-10-21T01:08:45.174Z,3.50
2022-10-21T01:11:15.855Z,2.60
2022-10-21T01:14:09.050Z,2.80
2022-10-21T01:17:04.058Z,2.47
2022-10-21T01:19:48.494Z,3.72
2022-10-21T01:22:32.738Z,2.95
2022-10-21T01:25:23.599Z,2.58
2022-10-21T01:28:13.568Z,3.35
2022-10-21T01:30:54.119Z,1.83
2022-10-21T01:33:49.903Z,3.00
2022-10-21T01:36:27.996Z,2.22
2022-10-21T01:39:03.693Z,2.33
2022-10-21T01:41:42.655Z,2.88
2022-10-21T01:44:27.770Z,4.75
2022-10-21T01:49:34.665Z,2.80
2022-10-21T01:52:03.462Z,2.30
2022-10-21T01:54:44.107Z,2.63
2022-10-21T01:57:14.996Z,3.15
2022-10-21T01:59:46.658Z,3.42
2022-10-21T02:02:16.153Z,4.30
2022-10-21T02:04:45.963Z,2.78
2022-10-21T02:07:13.719Z,3.25
2022-10-21T02:09:41.558Z,2.20
2022-10-21T02:12:09.899Z,2.50
2022-10-21T02:14:44.511Z,3.42
2022-10-21T02:17:14.753Z,2.60
2022-10-21T02:19:42.559Z,2.60
2022-10-21T02:22:11.809Z,2.78
2022-10-21T02:24:54.977Z,2.55
2022-10-21T02:27:23.180Z,2.45
2022-10-21T02:29:52.792Z,2.63
2022-10-21T02:32:42.742Z,1.83
2022-10-21T02:35:24.534Z,2.47
2022-10-21T02:37:55.376Z,1.92
2022-10-21T02:40:34.680Z,3.33
2022-10-21T02:43:12.462Z,3.05
2022-10-21T02:45:40.748Z,2.05
2022-10-21T02:48:08.633Z,1.90
2022-10-21T02:50:36.455Z,3.05
2022-10-21T02:53:04.664Z,3.58
2022-10-21T02:55:32.525Z,2.38
2022-10-21T02:58:00.555Z,3.20
2022-10-21T03:00:32.075Z,2.15
2022-10-21T03:03:00.905Z,2.33
2022-10-21T03:05:28.810Z,2.42
2022-10-21T03:07:56.673Z,2.95
2022-10-21T03:10:24.393Z,2.20
2022-10-21T03:12:52.112Z,3.28
2022-10-21T03:15:19.886Z,3.90
2022-10-21T03:17:47.916Z,3.15
2022-10-21T03:20:16.185Z,2.17
2022-10-21T03:22:46.983Z,2.60
2022-10-21T03:25:14.807Z,3.70
2022-10-21T03:27:42.667Z,3.65
2022-10-21T03:30:10.991Z,3.03
2022-10-21T03:32:39.183Z,3.28
2022-10-21T03:35:07.750Z,2.58
2022-10-21T03:37:35.488Z,5.45
2022-10-21T03:40:05.443Z,2.35
2022-10-21T03:42:36.696Z,2.92
2022-10-21T03:45:05.088Z,4.22
2022-10-21T03:47:32.958Z,2.78
2022-10-21T03:50:00.761Z,3.45
2022-10-21T03:52:30.038Z,4.07
2022-10-21T03:54:57.820Z,1.75
2022-10-21T03:57:25.558Z,3.05
2022-10-21T03:59:53.269Z,3.08
2022-10-21T04:02:20.958Z,3.13
2022-10-21T04:04:48.774Z,2.20
2022-10-21T04:07:16.762Z,1.92
2022-10-21T04:09:44.573Z,1.95
2022-10-21T04:12:12.799Z,2.72
2022-10-21T04:14:40.782Z,2.22
2022-10-21T04:17:08.658Z,2.10
2022-10-21T04:19:36.680Z,3.08
2022-10-21T04:22:05.539Z,2.83
2022-10-21T04:24:33.425Z,3.25
2022-10-21T04:27:01.297Z,2.97
2022-10-21T04:29:29.124Z,2.28
2022-10-21T04:31:56.928Z,2.92
2022-10-21T04:34:24.777Z,2.83
2022-10-21T04:36:52.627Z,2.15
2022-10-21T04:39:20.380Z,1.90
2022-10-21T04:41:50.061Z,3.30
2022-10-21T04:44:17.824Z,3.17
2022-10-21T04:46:45.683Z,2.20
2022-10-21T04:49:13.584Z,2.38
2022-10-21T04:51:41.270Z,3.28
2022-10-21T04:54:08.891Z,4.70
2022-10-21T04:56:36.573Z,5.65
2022-10-21T04:59:04.437Z,2.60
2022-10-21T05:01:32.365Z,2.80
2022-10-21T05:04:00.249Z,3.22
2022-10-21T05:06:28.015Z,2.72
2022-10-21T05:08:58.675Z,2.97
2022-10-21T05:11:26.417Z,6.78
2022-10-21T05:13:54.157Z,5.28
2022-10-21T05:16:22.237Z,5.85
2022-10-21T05:18:50.148Z,3.53
2022-10-21T05:21:17.952Z,2.60
2022-10-21T05:23:45.793Z,11.93
2022-10-21T05:26:13.526Z,6.18
2022-10-21T05:28:41.380Z,6.63
2022-10-21T05:31:09.231Z,9.05
2022-10-21T05:33:36.960Z,4.25
2022-10-21T05:36:08.745Z,6.13
2022-10-21T05:38:36.910Z,2.72
2022-10-21T05:41:04.919Z,3.38
2022-10-21T05:43:32.732Z,2.63
2022-10-21T05:46:00.499Z,6.65
2022-10-21T05:48:28.371Z,4.75
2022-10-21T05:50:56.865Z,4.05
2022-10-21T05:53:25.546Z,6.65
2022-10-21T05:56:01.653Z,3.58
2022-10-21T05:58:30.702Z,6.30
2022-10-21T06:00:59.332Z,3.33
2022-10-21T06:03:30.205Z,4.70
2022-10-21T06:05:59.304Z,3.60
2022-10-21T06:08:27.662Z,4.97
2022-10-21T06:11:14.602Z,4.70
2022-10-21T06:13:42.820Z,3.95
2022-10-21T06:16:11.349Z,7.25
2022-10-21T06:18:39.914Z,3.20
2022-10-21T06:21:08.453Z,4.95
2022-10-21T06:23:36.614Z,6.35
2022-10-21T06:26:05.521Z,4.00
2022-10-21T06:28:35.482Z,3.53
2022-10-21T06:31:03.914Z,5.72
2022-10-21T06:33:31.733Z,4.88
2022-10-21T06:35:59.741Z,4.78
2022-10-21T06:38:27.547Z,7.57
2022-10-21T06:41:02.885Z,7.07
2022-10-21T06:43:31.408Z,6.53
2022-10-21T06:46:06.881Z,5.15
2022-10-21T06:48:35.522Z,4.88
2022-10-21T06:51:10.204Z,11.65
2022-10-21T06:53:39.405Z,7.88
2022-10-21T06:56:10.126Z,4.22
2022-10-21T06:58:39.118Z,9.45
2022-10-21T07:01:21.491Z,8.55
2022-10-21T07:03:59.424Z,5.25
2022-10-21T07:06:27.491Z,4.90
2022-10-21T07:08:59.217Z,8.98
2022-10-21T07:11:28.351Z,10.52
2022-10-21T07:13:56.273Z,3.50
2022-10-21T07:16:26.525Z,3.38
2022-10-21T07:18:55.452Z,7.63
2022-10-21T07:21:25.774Z,10.80
2022-10-21T07:23:56.606Z,5.38
2022-10-21T07:26:28.192Z,9.05
2022-10-21T07:28:58.765Z,10.23
2022-10-21T07:31:27.697Z,14.80
2022-10-21T07:33:55.768Z,8.90
2022-10-21T07:36:26.046Z,15.57
2022-10-21T07:38:56.140Z,4.78
2022-10-21T07:41:27.923Z,8.55
2022-10-21T07:43:56.145Z,8.38
2022-10-21T07:46:24.278Z,6.80
2022-10-21T07:48:52.522Z,7.80
2022-10-21T07:51:26.961Z,5.95
2022-10-21T07:53:59.547Z,5.72
2022-10-21T07:56:30.090Z,6.80
2022-10-21T07:58:58.148Z,5.70
2022-10-21T08:01:26.263Z,14.02
2022-10-21T08:03:54.862Z,12.57
2022-10-21T08:06:24.028Z,7.75
2022-10-21T08:08:51.951Z,7.65
2022-10-21T08:11:27.581Z,10.90
2022-10-21T08:13:56.288Z,16.92
2022-10-21T08:16:24.782Z,9.43
2022-10-21T08:18:52.361Z,9.00
2022-10-21T08:21:20.216Z,9.57
2022-10-21T08:23:47.998Z,10.20
2022-10-21T08:26:16.912Z,7.25
2022-10-21T08:28:44.926Z,6.85
2022-10-21T08:31:17.914Z,8.10
2022-10-21T08:33:46.152Z,8.60
2022-10-21T08:36:25.233Z,7.75
2022-10-21T08:38:53.475Z,7.68
2022-10-21T08:41:54.341Z,7.15
2022-10-21T08:44:38.348Z,7.90
2022-10-21T08:47:18.159Z,7.15
2022-10-21T08:50:02.875Z,7.85
2022-10-21T08:52:42.782Z,6.50
2022-10-21T08:55:24.306Z,5.15
2022-10-21T08:57:56.084Z,13.88
2022-10-21T09:00:27.972Z,21.10
2022-10-21T09:03:02.880Z,12.85
2022-10-21T09:05:56.011Z,15.68
2022-10-21T09:08:38.869Z,13.18
2022-10-21T09:11:26.965Z,28.85
2022-10-21T09:14:22.480Z,23.45
2022-10-21T09:16:52.997Z,22.52
2022-10-21T09:19:39.969Z,35.05
2022-10-21T09:22:37.069Z,26.70
2022-10-21T09:25:18.524Z,20.33
2022-10-21T09:28:01.912Z,19.73
2022-10-21T09:30:30.092Z,23.30
2022-10-21T09:33:00.253Z,22.95
2022-10-21T09:35:48.426Z,17.98
2022-10-21T09:38:26.176Z,17.35
2022-10-21T09:41:03.465Z,24.33
2022-10-21T09:43:31.608Z,18.80
2022-10-21T09:45:59.730Z,19.77
2022-10-21T09:51:43.850Z,21.98
2022-10-21T09:54:18.888Z,23.35
2022-10-21T09:57:18.971Z,18.95
2022-10-21T09:59:58.580Z,14.23
2022-10-21T10:02:31.144Z,17.88
2022-10-21T10:04:59.045Z,17.67
2022-10-21T10:07:26.884Z,22.77
2022-10-21T10:09:54.940Z,15.18
2022-10-21T10:12:25.899Z,18.95
2022-10-21T10:14:55.749Z,18.80
2022-10-21T10:17:29.485Z,16.55
2022-10-21T10:20:07.619Z,8.30
2022-10-21T10:22:38.044Z,16.42
2022-10-21T10:25:19.287Z,15.27
2022-10-21T10:28:02.837Z,12.27
2022-10-21T10:30:48.987Z,11.13
2022-10-21T10:33:33.015Z,10.63
2022-10-21T10:36:05.559Z,12.85
2022-10-21T10:38:45.293Z,10.07
2022-10-21T10:41:15.769Z,13.35
2022-10-21T10:43:51.798Z,13.02
2022-10-21T10:46:38.661Z,11.13
2022-10-21T10:49:15.685Z,9.02
2022-10-21T10:51:47.855Z,8.30
2022-10-21T10:54:19.794Z,15.55
2022-10-21T10:57:01.098Z,14.80
2022-10-21T10:59:42.770Z,15.60
2022-10-21T11:02:10.736Z,17.90
2022-10-21T11:04:41.871Z,23.52
2022-10-21T11:07:26.242Z,18.15
2022-10-21T11:09:57.597Z,21.17
2022-10-21T11:12:27.326Z,20.30
2022-10-21T11:14:59.922Z,33.45
2022-10-21T11:17:50.574Z,32.65
2022-10-21T11:20:31.867Z,27.92
2022-10-21T11:23:19.433Z,33.53
2022-10-21T11:25:56.188Z,25.33
2022-10-21T11:28:30.880Z,29.70
2022-10-21T11:31:16.923Z,21.70
2022-10-21T11:34:02.574Z,19.48
2022-10-21T11:36:55.701Z,20.23
2022-10-21T11:39:29.492Z,18.85
2022-10-21T11:42:09.147Z,20.85
2022-10-21T11:44:55.278Z,20.35
2022-10-21T11:47:35.291Z,20.65
2022-10-21T11:50:24.734Z,17.20
2022-10-21T11:53:12.245Z,15.60
2022-10-21T11:56:04.996Z,17.42
2022-10-21T11:58:39.249Z,16.80
2022-10-21T12:01:07.185Z,17.52
2022-10-21T12:03:59.273Z,16.45
2022-10-21T12:06:49.471Z,18.65
2022-10-21T12:09:39.499Z,19.38
2022-10-21T12:12:20.026Z,20.55
2022-10-21T12:14:58.012Z,23.52
2022-10-21T12:17:26.519Z,21.35
2022-10-21T12:20:11.958Z,26.08
2022-10-21T12:22:40.092Z,19.00
2022-10-21T12:25:17.027Z,22.55
2022-10-21T12:27:47.662Z,18.95
2022-10-21T12:30:36.257Z,24.67
2022-10-21T12:33:22.834Z,20.42
2022-10-21T12:35:56.374Z,24.65
2022-10-21T12:38:48.520Z,18.13
2022-10-21T12:41:25.821Z,15.45
2022-10-21T12:44:04.775Z,19.65
2022-10-21T12:46:44.265Z,19.83
2022-10-21T12:49:28.717Z,21.27
2022-10-21T12:52:02.686Z,17.25
2022-10-21T12:54:43.736Z,20.50
2022-10-21T12:57:23.191Z,13.02
2022-10-21T12:59:51.066Z,18.75
2022-10-21T13:02:25.925Z,17.17
2022-10-21T13:04:55.613Z,21.45
2022-10-21T13:07:33.817Z,24.08
2022-10-21T13:10:01.535Z,21.40
2022-10-21T13:12:33.645Z,19.92
2022-10-21T13:15:24.635Z,16.25
2022-10-21T13:17:57.124Z,15.18
2022-10-21T13:20:24.980Z,27.15
2022-10-21T13:23:03.316Z,19.85
2022-10-21T13:25:35.432Z,17.52
2022-10-21T13:28:15.282Z,14.23
2022-10-21T13:30:49.163Z,14.40
2022-10-21T13:33:20.329Z,17.23
2022-10-21T13:35:49.296Z,18.83
2022-10-21T13:38:29.700Z,21.30
2022-10-21T13:41:18.904Z,14.93
2022-10-21T13:43:51.861Z,20.25
2022-10-21T13:46:23.954Z,23.95
2022-10-21T13:48:51.834Z,19.50
2022-10-21T13:51:21.856Z,20.92
2022-10-21T13:53:52.982Z,25.63
2022-10-21T13:56:28.558Z,19.88
2022-10-21T13:58:56.469Z,17.70
2022-10-21T14:01:28.705Z,15.55
2022-10-21T14:04:16.214Z,24.63
2022-10-21T14:06:48.308Z,19.48
2022-10-21T14:09:29.638Z,19.83
2022-10-21T14:12:03.921Z,20.08
2022-10-21T14:14:34.091Z,13.05
2022-10-21T14:17:05.907Z,17.80
2022-10-21T14:19:38.016Z,13.70
2022-10-21T14:24:47.710Z,14.70
2022-10-21T14:27:30.500Z,24.52
2022-10-21T14:30:01.224Z,21.30
2022-10-21T14:32:29.143Z,17.92
2022-10-21T14:35:09.155Z,14.52
2022-10-21T14:37:51.388Z,13.18
2022-10-21T14:40:26.481Z,17.33
2022-10-21T14:42:55.799Z,14.20
2022-10-21T14:45:30.635Z,13.48
2022-10-21T14:48:17.953Z,17.20
2022-10-21T14:50:55.096Z,16.85
2022-10-21T14:53:24.164Z,16.70
2022-10-21T14:55:58.947Z,11.05
2022-10-21T14:58:30.698Z,21.55
2022-10-21T15:01:12.958Z,21.83
2022-10-21T15:03:43.610Z,14.60
2022-10-21T15:06:18.435Z,18.83
2022-10-21T15:11:29.442Z,12.95
2022-10-21T15:14:13.319Z,17.60
2022-10-21T15:17:04.199Z,13.93
2022-10-21T15:20:03.233Z,14.13
2022-10-21T15:22:34.316Z,13.68
2022-10-21T15:25:08.409Z,10.77
2022-10-21T15:27:42.533Z,17.87
2022-10-21T15:30:21.946Z,9.88
2022-10-21T15:32:50.539Z,12.73
2022-10-21T15:35:20.291Z,13.85
2022-10-21T15:37:51.774Z,11.88
2022-10-21T15:40:21.364Z,13.77
2022-10-21T15:42:49.429Z,10.90
2022-10-21T15:45:24.772Z,11.18
2022-10-21T15:47:53.993Z,9.27
2022-10-21T15:50:24.739Z,14.27
2022-10-21T15:52:52.837Z,17.05
2022-10-21T15:55:23.828Z,11.10
2022-10-21T15:57:51.695Z,19.02
2022-10-21T16:00:21.718Z,10.48
2022-10-21T16:02:51.673Z,14.68
2022-10-21T16:05:21.748Z,17.85
2022-10-21T16:07:49.898Z,27.92
2022-10-21T16:10:29.764Z,28.08
2022-10-21T16:12:58.229Z,34.20
2022-10-21T16:15:26.572Z,24.13
2022-10-21T16:17:57.620Z,21.60
2022-10-21T16:20:29.591Z,27.35
2022-10-21T16:23:00.637Z,24.33
2022-10-21T16:25:31.483Z,30.13
2022-10-21T16:27:59.760Z,27.35
2022-10-21T16:30:39.571Z,22.42
2022-10-21T16:33:07.699Z,25.45
2022-10-21T16:35:35.683Z,22.05
2022-10-21T16:38:03.571Z,18.90
2022-10-21T16:40:35.177Z,19.15
2022-10-21T16:43:03.188Z,17.05
2022-10-21T16:45:32.444Z,17.17
2022-10-21T16:48:03.473Z,12.35
2022-10-21T16:50:48.769Z,13.60
2022-10-21T16:53:17.292Z,21.63
2022-10-21T16:55:45.025Z,18.55
2022-10-21T16:58:12.828Z,16.08
2022-10-21T17:00:41.535Z,14.77
2022-10-21T17:03:12.669Z,15.68
2022-10-21T17:05:43.406Z,13.05
2022-10-21T17:08:11.315Z,10.32
2022-10-21T17:10:39.227Z,13.07
2022-10-21T17:13:07.122Z,10.32
2022-10-21T17:15:34.760Z,13.00
2022-10-21T17:18:02.610Z,12.98
2022-10-21T17:20:30.961Z,21.05
2022-10-21T17:22:59.824Z,7.60
2022-10-21T17:25:29.253Z,9.43
2022-10-21T17:27:57.998Z,11.02
2022-10-21T17:30:26.966Z,9.98
2022-10-21T17:32:54.908Z,6.07
2022-10-21T17:35:22.805Z,9.95
2022-10-21T17:37:51.604Z,11.15
2022-10-21T17:40:22.619Z,12.80
2022-10-21T17:42:50.936Z,11.25
2022-10-21T17:45:19.514Z,14.95
2022-10-21T17:47:47.370Z,14.82
2022-10-21T17:50:18.622Z,9.82
2022-10-21T17:52:46.471Z,12.75
2022-10-21T17:55:16.445Z,14.20
2022-10-21T17:57:45.119Z,26.67
2022-10-21T18:00:15.182Z,23.92
2022-10-21T18:02:43.795Z,20.63
2022-10-21T18:05:11.692Z,24.85
2022-10-21T18:07:40.057Z,25.10
2022-10-21T18:10:08.995Z,20.60
2022-10-21T18:12:37.139Z,26.65
2022-10-21T18:15:05.603Z,23.25
2022-10-21T18:17:34.659Z,19.17
2022-10-21T18:20:02.486Z,22.35
2022-10-21T18:22:30.595Z,23.30
2022-10-21T18:24:58.466Z,27.88
2022-10-21T18:27:26.794Z,15.48
2022-10-21T18:29:55.599Z,23.48
2022-10-21T18:32:23.394Z,25.58
2022-10-21T18:34:51.710Z,20.98
2022-10-21T18:37:19.749Z,21.75
2022-10-21T18:39:49.272Z,22.80
2022-10-21T18:42:19.541Z,19.05
2022-10-21T18:44:47.854Z,20.92
2022-10-21T18:47:17.538Z,23.98
2022-10-21T18:49:45.298Z,18.45
2022-10-21T18:52:13.548Z,28.95
2022-10-21T18:54:41.260Z,21.10
2022-10-21T18:57:12.961Z,19.90
2022-10-21T18:59:40.945Z,22.52
2022-10-21T19:02:11.627Z,23.98
2022-10-21T19:04:41.855Z,21.80
2022-10-21T19:07:09.546Z,23.95
2022-10-21T19:09:37.239Z,20.10
2022-10-21T19:12:05.162Z,19.48
2022-10-21T19:14:34.131Z,20.70
2022-10-21T19:17:45.099Z,20.30
2022-10-21T19:20:13.980Z,20.55
2022-10-21T19:22:41.956Z,19.65
2022-10-21T19:25:10.032Z,15.75
2022-10-21T19:27:38.183Z,23.40
2022-10-21T19:30:06.524Z,20.23
2022-10-21T19:32:34.343Z,15.00
2022-10-21T19:35:02.284Z,12.98
2022-10-21T19:37:29.927Z,17.45
2022-10-21T19:39:57.993Z,15.80
2022-10-21T19:42:25.720Z,20.35
2022-10-21T19:44:53.518Z,16.17
2022-10-21T19:47:21.237Z,16.10
2022-10-21T19:49:49.190Z,17.55
2022-10-21T19:52:17.032Z,17.20
2022-10-21T19:54:45.036Z,18.58
2022-10-21T19:57:12.797Z,20.45
2022-10-21T19:59:40.567Z,20.02
2022-10-21T20:02:10.546Z,14.82
2022-10-21T20:04:38.620Z,15.98
2022-10-21T20:07:06.326Z,12.82
2022-10-21T20:09:37.841Z,19.80
2022-10-21T20:12:07.041Z,11.77
2022-10-21T20:14:34.897Z,14.15
2022-10-21T20:17:02.606Z,19.75
2022-10-21T20:19:30.516Z,16.73
2022-10-21T20:21:58.266Z,18.70
2022-10-21T20:24:26.201Z,15.38
2022-10-21T20:26:58.379Z,13.10
2022-10-21T20:29:29.161Z,10.85
2022-10-21T20:31:56.803Z,21.05
2022-10-21T20:34:25.253Z,16.75
2022-10-21T20:36:53.207Z,13.23
2022-10-21T20:39:21.232Z,15.35
2022-10-21T20:41:49.154Z,14.02
2022-10-21T20:44:17.772Z,17.08
2022-10-21T20:46:46.819Z,22.33
2022-10-21T20:49:14.607Z,28.67
2022-10-21T20:51:42.954Z,30.00
2022-10-21T20:54:16.116Z,22.48
2022-10-21T20:56:57.093Z,40.88
2022-10-21T20:59:25.406Z,23.50
2022-10-21T21:01:53.440Z,31.00
2022-10-21T21:04:23.724Z,31.15
2022-10-21T21:06:51.824Z,32.35
2022-10-21T21:09:44.057Z,31.52
2022-10-21T21:12:09.376Z,26.50
2022-10-21T21:14:37.210Z,27.38
2022-10-21T21:17:05.283Z,24.08
2022-10-21T21:19:33.520Z,25.55
2022-10-21T21:22:01.442Z,25.13
2022-10-21T21:24:29.251Z,18.23
2022-10-21T21:26:57.094Z,17.92
2022-10-21T21:29:24.679Z,20.13
2022-10-21T21:31:52.529Z,30.00
2022-10-21T21:34:20.150Z,17.27
2022-10-21T21:36:48.053Z,16.75
2022-10-21T21:41:48.427Z,19.20
2022-10-21T21:44:16.189Z,15.35
2022-10-21T21:46:44.351Z,16.30
2022-10-21T21:49:12.274Z,17.15
2022-10-21T21:51:40.065Z,14.65
2022-10-21T21:54:08.051Z,14.75
2022-10-21T21:56:36.392Z,16.98
2022-10-21T21:59:04.799Z,13.18
2022-10-21T22:01:32.759Z,15.25
2022-10-21T22:04:01.376Z,11.18
2022-10-21T22:06:31.976Z,15.65
2022-10-21T22:09:00.520Z,14.32
2022-10-21T22:11:31.605Z,12.60
2022-10-21T22:14:00.097Z,13.10
2022-10-21T22:16:30.506Z,12.75
2022-10-21T22:18:59.868Z,12.10
2022-10-21T22:21:28.347Z,9.85
2022-10-21T22:23:56.054Z,12.07
2022-10-21T22:26:24.017Z,9.80
2022-10-21T22:28:51.778Z,10.75
2022-10-21T22:31:27.198Z,10.63
2022-10-21T22:33:58.816Z,10.40
2022-10-21T22:36:27.575Z,10.18
2022-10-21T22:38:56.111Z,10.77
2022-10-21T22:41:24.125Z,12.52
2022-10-21T22:43:51.913Z,10.00
2022-10-21T22:46:35.298Z,6.70
2022-10-21T22:49:05.066Z,9.43
2022-10-21T22:51:35.560Z,9.18
2022-10-21T22:54:03.374Z,12.50
2022-10-21T22:56:32.258Z,15.60
2022-10-21T22:59:00.573Z,14.05
2022-10-21T23:01:30.652Z,13.95
2022-10-21T23:04:02.926Z,14.18
2022-10-21T23:06:34.948Z,14.80
2022-10-21T23:09:04.285Z,19.70
2022-10-21T23:11:32.572Z,19.40
2022-10-21T23:14:08.368Z,19.65
2022-10-21T23:16:37.205Z,23.08
2022-10-21T23:19:06.340Z,19.88
2022-10-21T23:21:34.555Z,22.88
2022-10-21T23:24:02.506Z,22.13
2022-10-21T23:26:30.427Z,19.63
2022-10-21T23:28:58.141Z,23.05
2022-10-21T23:31:25.890Z,22.33
2022-10-21T23:33:54.081Z,23.55
2022-10-21T23:36:22.035Z,20.77
2022-10-21T23:38:49.839Z,14.88
2022-10-21T23:41:17.730Z,17.77
2022-10-21T23:43:45.436Z,18.15
2022-10-21T23:46:13.391Z,15.95
2022-10-21T23:48:41.353Z,15.10
2022-10-21T23:51:09.126Z,13.63
2022-10-21T23:53:37.010Z,15.52
2022-10-21T23:56:05.753Z,13.55
2022-10-21T23:58:33.637Z,15.35
